Time;durP1;ratioP1;P1;durP2;ratioP2;P2;SDS_P1;SDS_P2;PMS_P1;PMS_P2;Temp;Humidity;BMP_temperature;BMP_pressure;BME280_temperature;BME280_humidity;BME280_pressure;Samples;Min_cycle;Max_cycle;Signal;HPM_P1;HPM_P2
2022/09/29 00:04:19;;;;;;;0.52;0.52;;;;;;;;;;10413709;28;20219;-79
2022/09/29 00:09:20;;;;;;;0.20;0.20;;;;;;;;;;10409195;28;20262;-79
2022/09/29 00:14:21;;;;;;;0.40;0.40;;;;;;;;;;10415591;28;20218;-78
2022/09/29 00:19:23;;;;;;;0.30;0.30;;;;;;;;;;10416404;28;20215;-79
2022/09/29 00:24:25;;;;;;;0.90;0.73;;;;;;;;;;10413269;28;20206;-78
2022/09/29 00:29:26;;;;;;;0.40;0.40;;;;;;;;;;10414375;28;20219;-78
2022/09/29 00:34:27;;;;;;;0.73;0.73;;;;;;;;;;10413890;28;20219;-79
2022/09/29 00:39:28;;;;;;;0.32;0.32;;;;;;;;;;10410430;28;20222;-78
2022/09/29 00:44:48;;;;;;;1.00;0.32;;;;;;;;;;10416251;28;20265;-79
2022/09/29 00:49:53;;;;;;;0.03;0.03;;;;;;;;;;10413151;28;20604;-79
2022/09/29 00:55:13;;;;;;;0.22;0.22;;;;;;;;;;10412661;28;20261;-78
2022/09/29 01:00:15;;;;;;;0.10;0.10;;;;;;;;;;10415053;28;20215;-79
2022/09/29 01:05:19;;;;;;;1.23;0.30;;;;;;;;;;10414110;28;20184;-80
2022/09/29 01:10:20;;;;;;;0.10;0.10;;;;;;;;;;10412824;28;20254;-79
2022/09/29 01:15:22;;;;;;;0.98;0.25;;;;;;;;;;10413598;28;20229;-79
2022/09/29 01:20:23;;;;;;;0.10;0.10;;;;;;;;;;10410970;28;20211;-79
2022/09/29 01:25:27;;;;;;;0.22;0.22;;;;;;;;;;10414340;28;20187;-79
2022/09/29 01:30:47;;;;;;;0.38;0.38;;;;;;;;;;10410738;28;20247;-79
2022/09/29 01:36:07;;;;;;;0.57;0.57;;;;;;;;;;10415373;28;20219;-79
2022/09/29 01:41:08;;;;;;;0.32;0.25;;;;;;;;;;10413252;28;20314;-78
2022/09/29 01:46:16;;;;;;;0.20;0.20;;;;;;;;;;10411670;28;20217;-79
2022/09/29 01:51:25;;;;;;;0.20;0.20;;;;;;;;;;10411507;28;20233;-79
2022/09/29 01:56:37;;;;;;;0.25;0.25;;;;;;;;;;10413765;28;20302;-78
2022/09/29 02:01:40;;;;;;;0.43;0.43;;;;;;;;;;10409893;28;20219;-79
2022/09/29 02:06:47;;;;;;;0.68;0.68;;;;;;;;;;10411350;28;20242;-79
2022/09/29 02:11:50;;;;;;;0.10;0.10;;;;;;;;;;10409340;28;20219;-79
2022/09/29 02:16:54;;;;;;;0.03;0.03;;;;;;;;;;10392314;28;20300;-79
2022/09/29 02:21:56;;;;;;;0.20;0.20;;;;;;;;;;10399063;28;20801;-79
2022/09/29 02:26:57;;;;;;;0.22;0.22;;;;;;;;;;10411271;28;20710;-79
2022/09/29 02:32:01;;;;;;;0.20;0.15;;;;;;;;;;10414255;28;20313;-79
2022/09/29 02:37:21;;;;;;;0.30;0.30;;;;;;;;;;10411611;28;20293;-78
2022/09/29 02:42:23;;;;;;;0.40;0.40;;;;;;;;;;10410530;28;20303;-79
2022/09/29 02:47:35;;;;;;;0.40;0.40;;;;;;;;;;10412902;28;20761;-79
2022/09/29 02:52:46;;;;;;;0.40;0.40;;;;;;;;;;10398950;28;20682;-79
2022/09/29 02:57:56;;;;;;;0.28;0.28;;;;;;;;;;10409675;28;20242;-79
2022/09/29 03:02:57;;;;;;;0.40;0.40;;;;;;;;;;10417126;28;20944;-78
2022/09/29 03:07:58;;;;;;;0.85;0.85;;;;;;;;;;10416227;28;20258;-79
2022/09/29 03:13:00;;;;;;;0.50;0.50;;;;;;;;;;10416201;28;20265;-78
2022/09/29 03:18:02;;;;;;;0.10;0.10;;;;;;;;;;10400167;28;20340;-79
2022/09/29 03:23:03;;;;;;;2.92;0.30;;;;;;;;;;10414441;28;20609;-79
2022/09/29 03:28:04;;;;;;;2.55;0.20;;;;;;;;;;10411456;28;20246;-81
2022/09/29 03:33:05;;;;;;;0.28;0.28;;;;;;;;;;10411737;28;20773;-80
2022/09/29 03:38:07;;;;;;;0.52;0.52;;;;;;;;;;10415736;28;20234;-80
2022/09/29 03:43:08;;;;;;;0.35;0.25;;;;;;;;;;10419730;28;20982;-79
2022/09/29 03:48:09;;;;;;;0.57;0.57;;;;;;;;;;10430105;28;20220;-79
2022/09/29 03:53:10;;;;;;;1.45;0.32;;;;;;;;;;10426943;28;20665;-79
2022/09/29 03:58:11;;;;;;;0.52;0.52;;;;;;;;;;10418301;28;20322;-80
2022/09/29 04:03:12;;;;;;;0.28;0.28;;;;;;;;;;10426679;28;20210;-80
2022/09/29 04:08:14;;;;;;;0.20;0.20;;;;;;;;;;10411895;28;20218;-78
2022/09/29 04:13:15;;;;;;;0.47;0.47;;;;;;;;;;10414535;28;20270;-78
2022/09/29 04:18:16;;;;;;;0.80;0.30;;;;;;;;;;10428278;28;20215;-80
2022/09/29 04:23:17;;;;;;;0.45;0.45;;;;;;;;;;10439151;28;20210;-79
2022/09/29 04:28:18;;;;;;;0.20;0.20;;;;;;;;;;10435705;28;20356;-80
2022/09/29 04:33:19;;;;;;;0.03;0.03;;;;;;;;;;10437780;28;20222;-79
2022/09/29 04:38:21;;;;;;;0.80;0.47;;;;;;;;;;10434001;28;20215;-79
2022/09/29 04:43:22;;;;;;;0.00;0.00;;;;;;;;;;10427564;28;20250;-80
2022/09/29 04:48:24;;;;;;;0.10;0.10;;;;;;;;;;10425240;28;20242;-79
2022/09/29 04:53:25;;;;;;;0.20;0.20;;;;;;;;;;10361514;28;20223;-78
2022/09/29 04:58:26;;;;;;;0.22;0.20;;;;;;;;;;10367144;28;21068;-78
2022/09/29 05:03:27;;;;;;;0.20;0.20;;;;;;;;;;10361430;28;20396;-79
2022/09/29 05:08:28;;;;;;;0.20;0.20;;;;;;;;;;10368680;28;20295;-78
2022/09/29 05:13:29;;;;;;;0.00;0.00;;;;;;;;;;10408181;28;20227;-79
2022/09/29 05:18:31;;;;;;;0.20;0.20;;;;;;;;;;10403321;28;20660;-78
2022/09/29 05:23:32;;;;;;;0.52;0.10;;;;;;;;;;10401834;28;20211;-78
2022/09/29 05:28:34;;;;;;;0.10;0.10;;;;;;;;;;10404158;28;20706;-79
2022/09/29 05:33:35;;;;;;;0.10;0.10;;;;;;;;;;10408179;28;20687;-77
2022/09/29 05:38:37;;;;;;;0.20;0.20;;;;;;;;;;10369798;28;20223;-77
2022/09/29 05:43:39;;;;;;;0.43;0.17;;;;;;;;;;10369553;28;20220;-77
2022/09/29 05:48:40;;;;;;;0.15;0.15;;;;;;;;;;10364781;28;20277;-78
2022/09/29 05:53:41;;;;;;;0.10;0.10;;;;;;;;;;10355004;28;20583;-79
2022/09/29 05:58:43;;;;;;;0.20;0.20;;;;;;;;;;10362386;28;20315;-78
2022/09/29 06:03:44;;;;;;;0.17;0.17;;;;;;;;;;10378417;28;20226;-78
2022/09/29 06:08:45;;;;;;;0.20;0.10;;;;;;;;;;10376960;28;20366;-78
2022/09/29 06:13:48;;;;;;;0.20;0.20;;;;;;;;;;10367471;28;20569;-79
2022/09/29 06:18:49;;;;;;;0.10;0.10;;;;;;;;;;10367377;28;20935;-78
2022/09/29 06:23:50;;;;;;;0.03;0.03;;;;;;;;;;10401642;28;20230;-79
2022/09/29 06:28:52;;;;;;;0.32;0.20;;;;;;;;;;10392705;28;20272;-79
2022/09/29 06:33:56;;;;;;;0.43;0.30;;;;;;;;;;10404402;28;20223;-78
2022/09/29 06:38:57;;;;;;;0.20;0.20;;;;;;;;;;10406747;28;20789;-78
2022/09/29 06:43:58;;;;;;;1.30;1.30;;;;;;;;;;10389686;28;20218;-78
2022/09/29 06:48:59;;;;;;;0.10;0.10;;;;;;;;;;10407292;28;20373;-78
2022/09/29 06:54:00;;;;;;;0.10;0.10;;;;;;;;;;10411427;28;20250;-78
2022/09/29 06:59:02;;;;;;;0.10;0.10;;;;;;;;;;10408678;28;20230;-78
2022/09/29 07:04:03;;;;;;;0.13;0.13;;;;;;;;;;10405328;28;20246;-78
2022/09/29 07:09:04;;;;;;;0.10;0.10;;;;;;;;;;10407696;28;20260;-76
2022/09/29 07:14:05;;;;;;;0.30;0.30;;;;;;;;;;10405025;28;20218;-78
2022/09/29 07:19:06;;;;;;;0.10;0.10;;;;;;;;;;10408811;28;20341;-78
2022/09/29 07:24:08;;;;;;;0.80;0.68;;;;;;;;;;10406367;28;20508;-77
2022/09/29 07:29:09;;;;;;;0.00;0.00;;;;;;;;;;10406469;28;20261;-78
2022/09/29 07:34:10;;;;;;;0.30;0.30;;;;;;;;;;10411375;28;20620;-77
2022/09/29 07:39:12;;;;;;;0.55;0.32;;;;;;;;;;10417825;28;20215;-78
2022/09/29 07:44:13;;;;;;;0.00;0.00;;;;;;;;;;10376880;28;20212;-78
2022/09/29 07:49:14;;;;;;;0.10;0.10;;;;;;;;;;10366860;28;20727;-77
2022/09/29 07:54:15;;;;;;;0.10;0.10;;;;;;;;;;10378360;28;20219;-78
2022/09/29 07:59:16;;;;;;;0.40;0.40;;;;;;;;;;10376729;28;20598;-78
2022/09/29 08:04:17;;;;;;;0.10;0.10;;;;;;;;;;10359621;28;20208;-79
2022/09/29 08:09:18;;;;;;;0.43;0.28;;;;;;;;;;10360708;28;20262;-78
2022/09/29 08:14:20;;;;;;;3.08;0.30;;;;;;;;;;10414527;28;20321;-78
2022/09/29 08:19:21;;;;;;;0.10;0.10;;;;;;;;;;10418196;28;20602;-79
2022/09/29 08:24:24;;;;;;;0.63;0.63;;;;;;;;;;10375181;28;20208;-78
2022/09/29 08:29:25;;;;;;;0.95;0.63;;;;;;;;;;10373171;28;20224;-78
2022/09/29 08:34:26;;;;;;;0.20;0.20;;;;;;;;;;10373834;28;20756;-79
2022/09/29 08:39:27;;;;;;;0.35;0.35;;;;;;;;;;10374298;28;20222;-79
2022/09/29 08:44:28;;;;;;;0.25;0.25;;;;;;;;;;10375322;28;20238;-78
2022/09/29 08:49:39;;;;;;;0.38;0.38;;;;;;;;;;10372844;28;20677;-78
2022/09/29 08:54:42;;;;;;;0.15;0.15;;;;;;;;;;10372972;28;20228;-78
2022/09/29 08:59:43;;;;;;;0.73;0.73;;;;;;;;;;10373870;28;20286;-78
2022/09/29 09:04:53;;;;;;;2.17;0.47;;;;;;;;;;10373133;28;20235;-78
2022/09/29 09:10:02;;;;;;;1.92;1.42;;;;;;;;;;10385702;28;20238;-78
2022/09/29 09:15:14;;;;;;;0.73;0.73;;;;;;;;;;10413037;28;20215;-79
2022/09/29 09:20:18;;;;;;;0.80;0.80;;;;;;;;;;10416654;28;20211;-79
2022/09/29 09:25:32;;;;;;;1.48;0.75;;;;;;;;;;10414620;28;20194;-80
2022/09/29 09:30:36;;;;;;;1.88;0.88;;;;;;;;;;10398284;28;20222;-81
2022/09/29 09:35:42;;;;;;;0.73;0.50;;;;;;;;;;10413567;28;20219;-81
2022/09/29 09:40:45;;;;;;;0.50;0.50;;;;;;;;;;10379804;28;20223;-81
2022/09/29 09:45:55;;;;;;;1.02;0.93;;;;;;;;;;10413836;28;20227;-81
2022/09/29 09:50:58;;;;;;;1.00;0.90;;;;;;;;;;10397623;28;20238;-82
2022/09/29 09:56:10;;;;;;;0.43;0.43;;;;;;;;;;10393017;28;20234;-81
2022/09/29 10:01:11;;;;;;;0.55;0.45;;;;;;;;;;10412396;28;20222;-81
2022/09/29 10:06:12;;;;;;;0.10;0.10;;;;;;;;;;10413216;28;20249;-81
2022/09/29 10:11:24;;;;;;;2.15;0.55;;;;;;;;;;10411993;28;20226;-81
2022/09/29 10:16:29;;;;;;;0.68;0.68;;;;;;;;;;10410497;28;20214;-80
2022/09/29 10:21:37;;;;;;;0.80;0.75;;;;;;;;;;10397794;28;20273;-81
2022/09/29 10:26:39;;;;;;;0.30;0.30;;;;;;;;;;10416011;28;20211;-82
2022/09/29 10:31:40;;;;;;;1.02;1.02;;;;;;;;;;10438426;28;20223;-81
2022/09/29 10:37:01;;;;;;;1.20;1.10;;;;;;;;;;10417228;28;20257;-81
2022/09/29 10:42:03;;;;;;;1.10;0.50;;;;;;;;;;10415750;28;20211;-81
2022/09/29 10:47:07;;;;;;;0.50;0.50;;;;;;;;;;10412869;28;20326;-82
2022/09/29 10:52:17;;;;;;;1.25;0.20;;;;;;;;;;10417833;28;20226;-81
2022/09/29 10:57:23;;;;;;;0.20;0.17;;;;;;;;;;10413738;28;20211;-81
2022/09/29 11:02:27;;;;;;;0.10;0.10;;;;;;;;;;10418710;28;20215;-80
2022/09/29 11:07:30;;;;;;;0.30;0.30;;;;;;;;;;10421131;28;20318;-80
2022/09/29 11:12:33;;;;;;;1.05;0.80;;;;;;;;;;10421454;28;20231;-81
2022/09/29 11:17:38;;;;;;;1.55;0.15;;;;;;;;;;10403047;28;20219;-80
2022/09/29 11:22:49;;;;;;;0.30;0.30;;;;;;;;;;10418158;28;20211;-82
2022/09/29 11:28:03;;;;;;;0.15;0.15;;;;;;;;;;10417801;28;20332;-81
2022/09/29 11:33:11;;;;;;;0.60;0.60;;;;;;;;;;10418128;28;20222;-81
2022/09/29 11:38:31;;;;;;;0.10;0.10;;;;;;;;;;10401215;28;20282;-81
2022/09/29 11:43:51;;;;;;;0.15;0.15;;;;;;;;;;10417664;28;20214;-81
2022/09/29 11:49:03;;;;;;;0.20;0.20;;;;;;;;;;10415889;28;20215;-82
2022/09/29 11:54:27;;;;;;;0.00;0.00;;;;;;;;;;10421462;28;20270;-81
2022/09/29 11:59:37;;;;;;;0.52;0.52;;;;;;;;;;10421317;28;20840;-81
2022/09/29 12:04:57;;;;;;;0.28;0.28;;;;;;;;;;10417336;28;20743;-82
2022/09/29 12:10:17;;;;;;;1.20;0.45;;;;;;;;;;10419545;28;20962;-82
2022/09/29 12:15:22;;;;;;;0.40;0.40;;;;;;;;;;10409481;28;20211;-81
2022/09/29 12:20:29;;;;;;;0.63;0.30;;;;;;;;;;10418940;28;20306;-82
2022/09/29 12:25:33;;;;;;;1.45;0.35;;;;;;;;;;10417473;28;20621;-81
2022/09/29 12:30:41;;;;;;;0.40;0.40;;;;;;;;;;10410481;28;21061;-81
2022/09/29 12:35:46;;;;;;;2.13;0.45;;;;;;;;;;10407775;28;20215;-80
2022/09/29 12:40:52;;;;;;;0.20;0.20;;;;;;;;;;10404154;28;20250;-81
2022/09/29 12:45:56;;;;;;;0.60;0.60;;;;;;;;;;10409887;28;20215;-80
2022/09/29 12:51:00;;;;;;;0.22;0.20;;;;;;;;;;10433785;28;20231;-81
2022/09/29 12:56:11;;;;;;;0.25;0.25;;;;;;;;;;10406276;28;20284;-80
2022/09/29 13:01:12;;;;;;;1.48;0.80;;;;;;;;;;10409883;28;20218;-80
2022/09/29 13:06:42;;;;;;;1.02;0.73;;;;;;;;;;10404820;28;20222;-81
2022/09/29 13:11:44;;;;;;;0.60;0.60;;;;;;;;;;10307751;28;20286;-81
2022/09/29 13:16:47;;;;;;;0.10;0.10;;;;;;;;;;10374466;28;21123;-81
2022/09/29 13:21:49;;;;;;;0.30;0.22;;;;;;;;;;10370824;28;20310;-80
2022/09/29 13:26:59;;;;;;;0.32;0.32;;;;;;;;;;10370555;28;20219;-81
2022/09/29 13:32:02;;;;;;;0.10;0.10;;;;;;;;;;10369419;28;20239;-80
2022/09/29 13:37:13;;;;;;;0.43;0.40;;;;;;;;;;10357890;28;20204;-80
2022/09/29 13:42:25;;;;;;;1.20;0.30;;;;;;;;;;10329543;28;20212;-80
2022/09/29 13:47:31;;;;;;;0.20;0.20;;;;;;;;;;10325541;28;20224;-80
2022/09/29 13:52:39;;;;;;;0.20;0.20;;;;;;;;;;10345562;28;20211;-80
2022/09/29 13:57:50;;;;;;;0.10;0.10;;;;;;;;;;10369537;28;20211;-79
2022/09/29 14:03:06;;;;;;;0.10;0.10;;;;;;;;;;10369934;28;20215;-79
2022/09/29 14:08:13;;;;;;;0.10;0.10;;;;;;;;;;10351298;28;20763;-78
2022/09/29 14:13:19;;;;;;;0.30;0.10;;;;;;;;;;10402085;28;20740;-78
2022/09/29 14:18:31;;;;;;;9.95;0.60;;;;;;;;;;10398485;28;20757;-78
2022/09/29 14:23:48;;;;;;;0.88;0.10;;;;;;;;;;10407317;28;20223;-79
2022/09/29 14:28:51;;;;;;;0.40;0.40;;;;;;;;;;10402429;28;20215;-81
2022/09/29 14:33:53;;;;;;;0.17;0.17;;;;;;;;;;10406426;28;20305;-80
2022/09/29 14:38:55;;;;;;;0.30;0.30;;;;;;;;;;10390787;28;20223;-81
2022/09/29 14:44:08;;;;;;;2.50;0.13;;;;;;;;;;10400680;28;20806;-80
2022/09/29 14:55:03;;;;;;;17.73;0.73;;;;;;;;;;10384455;28;20233;-79
2022/09/29 15:00:04;;;;;;;0.08;0.08;;;;;;;;;;10412034;28;20418;-79
2022/09/29 15:05:24;;;;;;;0.10;0.10;;;;;;;;;;10426094;28;20206;-80
2022/09/29 15:10:27;;;;;;;0.00;0.00;;;;;;;;;;10416653;28;20234;-80
2022/09/29 15:15:36;;;;;;;0.10;0.10;;;;;;;;;;10417934;28;20214;-80
2022/09/29 15:20:54;;;;;;;0.10;0.10;;;;;;;;;;10412820;28;20233;-80
2022/09/29 15:25:57;;;;;;;0.10;0.10;;;;;;;;;;10413339;28;20249;-80
2022/09/29 15:31:01;;;;;;;0.30;0.30;;;;;;;;;;10420418;28;20219;-80
2022/09/29 15:36:04;;;;;;;0.43;0.43;;;;;;;;;;10414241;28;20206;-80
2022/09/29 15:41:15;;;;;;;0.30;0.22;;;;;;;;;;10405813;28;20219;-80
2022/09/29 15:46:20;;;;;;;0.10;0.10;;;;;;;;;;10403709;28;20215;-80
2022/09/29 15:51:22;;;;;;;0.00;0.00;;;;;;;;;;10385902;28;20223;-80
2022/09/29 15:56:23;;;;;;;0.10;0.10;;;;;;;;;;10401901;28;20249;-80
2022/09/29 16:01:24;;;;;;;0.10;0.10;;;;;;;;;;10416724;28;20310;-80
2022/09/29 16:06:30;;;;;;;2.17;0.30;;;;;;;;;;10413416;28;20215;-80
2022/09/29 16:11:35;;;;;;;0.20;0.20;;;;;;;;;;10413553;28;20219;-80
2022/09/29 16:16:40;;;;;;;0.52;0.52;;;;;;;;;;10417731;28;20469;-80
2022/09/29 16:21:42;;;;;;;0.90;0.80;;;;;;;;;;10422116;28;20215;-80
2022/09/29 16:26:44;;;;;;;3.83;0.52;;;;;;;;;;10402921;28;20386;-80
2022/09/29 16:31:46;;;;;;;0.43;0.43;;;;;;;;;;10413440;28;20211;-80
2022/09/29 16:37:01;;;;;;;0.20;0.20;;;;;;;;;;10418475;28;20215;-80
2022/09/29 16:42:04;;;;;;;1.48;0.10;;;;;;;;;;10398289;28;20300;-79
2022/09/29 16:47:16;;;;;;;0.50;0.50;;;;;;;;;;10414829;28;20259;-80
2022/09/29 16:52:33;;;;;;;2.10;0.35;;;;;;;;;;10417694;28;20211;-80
2022/09/29 16:57:36;;;;;;;0.70;0.70;;;;;;;;;;10394150;28;20214;-80
2022/09/29 17:02:37;;;;;;;0.43;0.43;;;;;;;;;;10416625;28;20215;-80
2022/09/29 17:07:42;;;;;;;4.13;1.17;;;;;;;;;;10408655;28;20219;-80
2022/09/29 17:12:44;;;;;;;1.05;0.82;;;;;;;;;;10405426;28;20728;-79
2022/09/29 17:17:47;;;;;;;0.50;0.50;;;;;;;;;;10424344;28;23620;-80
2022/09/29 17:22:48;;;;;;;0.43;0.43;;;;;;;;;;10377435;28;20245;-80
2022/09/29 17:33:11;;;;;;;0.50;0.50;;;;;;;;;;10385782;28;20215;-80
2022/09/29 17:38:13;;;;;;;0.98;0.98;;;;;;;;;;10409757;28;20272;-79
2022/09/29 17:43:15;;;;;;;0.75;0.55;;;;;;;;;;10406815;28;20229;-79
2022/09/29 17:48:19;;;;;;;3.80;3.42;;;;;;;;;;10409269;28;20230;-79
2022/09/29 17:53:20;;;;;;;4.82;3.22;;;;;;;;;;10409462;28;20771;-80
2022/09/29 17:58:22;;;;;;;6.90;3.03;;;;;;;;;;10410505;28;20269;-80
2022/09/29 18:03:23;;;;;;;3.17;2.97;;;;;;;;;;10405207;28;20210;-80
2022/09/29 18:08:26;;;;;;;3.35;3.20;;;;;;;;;;10405582;28;20648;-80
2022/09/29 18:13:30;;;;;;;4.32;2.97;;;;;;;;;;10408636;28;20218;-80
2022/09/29 18:18:34;;;;;;;4.15;3.83;;;;;;;;;;10410618;28;20305;-80
2022/09/29 18:23:36;;;;;;;3.92;3.72;;;;;;;;;;10408517;28;20215;-79
2022/09/29 18:28:37;;;;;;;12.85;4.35;;;;;;;;;;10408158;28;20416;-80
2022/09/29 18:33:38;;;;;;;7.22;5.30;;;;;;;;;;10406408;28;20219;-82
2022/09/29 18:38:39;;;;;;;3.97;3.78;;;;;;;;;;10409153;28;20214;-80
2022/09/29 18:43:40;;;;;;;5.75;4.70;;;;;;;;;;10407736;28;20218;-80
2022/09/29 18:48:41;;;;;;;5.82;5.28;;;;;;;;;;10404012;28;20202;-79
2022/09/29 18:53:43;;;;;;;5.07;4.68;;;;;;;;;;10395140;28;20223;-80
2022/09/29 18:58:44;;;;;;;4.32;4.00;;;;;;;;;;10412572;28;20217;-80
2022/09/29 19:03:45;;;;;;;4.45;3.45;;;;;;;;;;10402875;28;20226;-79
2022/09/29 19:08:47;;;;;;;4.50;3.88;;;;;;;;;;10394999;28;20427;-79
2022/09/29 19:13:51;;;;;;;3.20;2.95;;;;;;;;;;10407603;28;20230;-78
2022/09/29 19:18:52;;;;;;;3.00;2.90;;;;;;;;;;10405943;28;20214;-78
2022/09/29 19:23:53;;;;;;;3.97;3.58;;;;;;;;;;10405419;28;20210;-77
2022/09/29 19:28:54;;;;;;;4.15;3.75;;;;;;;;;;10403542;28;20226;-78
2022/09/29 19:33:56;;;;;;;3.53;3.33;;;;;;;;;;10401957;28;20345;-78
2022/09/29 19:38:57;;;;;;;7.10;3.45;;;;;;;;;;10411388;28;20215;-78
2022/09/29 19:43:58;;;;;;;5.18;4.68;;;;;;;;;;10410453;28;20325;-78
2022/09/29 19:49:00;;;;;;;4.30;3.75;;;;;;;;;;10413970;28;20896;-78
2022/09/29 19:54:13;;;;;;;4.00;3.75;;;;;;;;;;10412188;28;20229;-78
2022/09/29 19:59:15;;;;;;;3.95;3.60;;;;;;;;;;10414485;28;20215;-78
2022/09/29 20:04:18;;;;;;;4.95;4.47;;;;;;;;;;10412898;28;20239;-78
2022/09/29 20:09:19;;;;;;;6.55;4.53;;;;;;;;;;10415688;28;20241;-77
2022/09/29 20:14:21;;;;;;;5.18;4.78;;;;;;;;;;10415025;28;20278;-77
2022/09/29 20:19:23;;;;;;;5.38;4.45;;;;;;;;;;10414617;28;20738;-77
2022/09/29 20:24:24;;;;;;;4.97;4.40;;;;;;;;;;10412614;28;20276;-78
2022/09/29 20:29:26;;;;;;;5.22;4.03;;;;;;;;;;10412913;28;20221;-77
2022/09/29 20:34:27;;;;;;;6.15;4.45;;;;;;;;;;10412380;28;20219;-78
2022/09/29 20:39:28;;;;;;;8.10;4.93;;;;;;;;;;10412268;28;20210;-77
2022/09/29 20:44:29;;;;;;;7.90;5.50;;;;;;;;;;10407424;28;20211;-78
2022/09/29 20:49:30;;;;;;;7.00;5.55;;;;;;;;;;10406354;28;20777;-77
2022/09/29 20:54:32;;;;;;;4.60;4.22;;;;;;;;;;10409491;28;20218;-77
2022/09/29 20:59:34;;;;;;;3.60;3.35;;;;;;;;;;10414363;28;20235;-78
2022/09/29 21:04:36;;;;;;;3.92;3.60;;;;;;;;;;10411365;28;20213;-78
2022/09/29 21:09:37;;;;;;;4.53;4.13;;;;;;;;;;10421874;28;20227;-78
2022/09/29 21:14:38;;;;;;;5.13;4.30;;;;;;;;;;10414713;28;20218;-78
2022/09/29 21:19:39;;;;;;;5.70;4.10;;;;;;;;;;10408696;28;20233;-78
2022/09/29 21:24:40;;;;;;;4.97;4.47;;;;;;;;;;10407223;28;20223;-78
2022/09/29 21:29:42;;;;;;;3.97;3.63;;;;;;;;;;10411341;28;20369;-78
2022/09/29 21:34:43;;;;;;;4.13;3.67;;;;;;;;;;10406369;28;20220;-78
2022/09/29 21:39:44;;;;;;;3.05;2.75;;;;;;;;;;10406628;28;20213;-80
2022/09/29 21:44:45;;;;;;;3.70;3.38;;;;;;;;;;10408800;28;20811;-78
2022/09/29 21:49:46;;;;;;;3.42;3.20;;;;;;;;;;10420758;28;20245;-77
2022/09/29 21:54:48;;;;;;;4.43;3.65;;;;;;;;;;10415949;28;20211;-78
2022/09/29 21:59:49;;;;;;;4.78;4.05;;;;;;;;;;10411695;28;20225;-78
2022/09/29 22:04:50;;;;;;;3.75;3.45;;;;;;;;;;10408592;28;20214;-78
2022/09/29 22:09:51;;;;;;;4.38;3.67;;;;;;;;;;10387552;28;20246;-77
2022/09/29 22:14:52;;;;;;;3.35;3.10;;;;;;;;;;10405384;28;20219;-78
2022/09/29 22:19:53;;;;;;;5.13;3.40;;;;;;;;;;10406651;28;20215;-78
2022/09/29 22:24:55;;;;;;;3.60;3.40;;;;;;;;;;10408196;28;20311;-77
2022/09/29 22:29:56;;;;;;;3.72;3.25;;;;;;;;;;10401601;28;20278;-77
2022/09/29 22:34:57;;;;;;;5.25;3.22;;;;;;;;;;10398523;28;20288;-77
2022/09/29 22:39:58;;;;;;;3.30;2.80;;;;;;;;;;10409169;28;20310;-78
2022/09/29 22:44:59;;;;;;;2.17;2.05;;;;;;;;;;10411352;28;20225;-77
2022/09/29 22:50:00;;;;;;;2.90;2.67;;;;;;;;;;10406340;28;20246;-78
2022/09/29 22:55:02;;;;;;;3.70;3.40;;;;;;;;;;10409999;28;20215;-76
2022/09/29 23:00:03;;;;;;;3.30;2.97;;;;;;;;;;10409932;28;20362;-77
2022/09/29 23:05:04;;;;;;;2.55;2.45;;;;;;;;;;10409713;28;20796;-77
2022/09/29 23:10:09;;;;;;;2.78;2.63;;;;;;;;;;10371703;28;20231;-77
2022/09/29 23:15:10;;;;;;;3.40;3.15;;;;;;;;;;10411017;28;20741;-78
2022/09/29 23:20:11;;;;;;;2.75;2.58;;;;;;;;;;10413291;28;20210;-77
2022/09/29 23:25:13;;;;;;;2.70;2.53;;;;;;;;;;10414718;28;20190;-79
2022/09/29 23:30:14;;;;;;;4.80;3.22;;;;;;;;;;10411956;28;20684;-76
2022/09/29 23:35:15;;;;;;;2.95;2.65;;;;;;;;;;10414025;28;20210;-77
2022/09/29 23:40:16;;;;;;;11.65;3.35;;;;;;;;;;10400471;28;20205;-77
2022/09/29 23:45:17;;;;;;;2.92;2.72;;;;;;;;;;10416094;28;20186;-79
2022/09/29 23:50:18;;;;;;;2.38;2.28;;;;;;;;;;10411823;28;20717;-77
2022/09/29 23:55:19;;;;;;;2.80;2.50;;;;;;;;;;10410440;28;20202;-78
